»·PEaware :: DAL2504 KSLC-KDEN

DAL2504 :: KSLC-KDEN

FLIGHT INFORMATION

Flight Status: Arrived
Operator:
Delta Air Lines
More flights by this operator :: More flights under this callsign
Pilot: John C. (18682)
Aircraft: AIRBUS A320
(A320)
More flights by this aircraft type
Origin: KSLC Salt Lake City Intl
United States
Destination: KDEN Denver Intl
United States
More flights between these airports :: More routes between these airports
Route: +LEETZ6 CHE FRNCH3
File this flight plan on PilotEdge
Remarks:
Altitude:
(Current/Filed)
33,000ft
Speed:
(Current/Filed)
453kts
Departed: 21-Apr-18 12:52 PM
Arrived: 21-Apr-18 01:56 PM
Distance/Time
Traveled:
339nm/1:04
Distance/Time
To Go:
Arrived

Flight Plot

Page will automatically refresh every two minutes.

Flight plan parsing failed; only flown route is shown


Map Options




Map Legend


Flown Route
Filed Route
Departure Airport
Arrival Airport
Navaid (VOR, NDB)
Fix

Horizontal Profiles

Position Reports

Time Latitude Longitude Heading Altitude Ground
Speed
21-Apr-18 12:25 40.788508 -111.980775 283 4236ft 0kts
21-Apr-18 12:26 40.788508 -111.980775 283 4236ft 0kts
21-Apr-18 12:27 40.788508 -111.980775 283 4236ft 0kts
21-Apr-18 12:28 40.788508 -111.980775 283 4236ft 0kts
21-Apr-18 12:29 40.788508 -111.980775 283 4236ft 0kts
21-Apr-18 12:30 40.788508 -111.980775 283 4236ft 0kts
21-Apr-18 12:31 40.788508 -111.980775 283 4236ft 0kts
21-Apr-18 12:32 40.788508 -111.980775 283 4236ft 0kts
21-Apr-18 12:33 40.788508 -111.980775 283 4236ft 0kts
21-Apr-18 12:34 40.788508 -111.980775 283 4236ft 0kts
21-Apr-18 12:35 40.788508 -111.980775 283 4236ft 0kts
21-Apr-18 12:36 40.788508 -111.980775 283 4236ft 0kts
21-Apr-18 12:37 40.788508 -111.980775 283 4236ft 0kts
21-Apr-18 12:38 40.788508 -111.980775 283 4236ft 0kts
21-Apr-18 12:39 40.788477 -111.980595 282 4236ft 2kts
21-Apr-18 12:40 40.788204 -111.980018 7 4236ft 1kts
21-Apr-18 12:41 40.788105 -111.980060 19 4236ft 0kts
21-Apr-18 12:42 40.788116 -111.980055 19 4236ft 1kts
21-Apr-18 12:43 40.789732 -111.977894 84 4236ft 3kts
21-Apr-18 12:44 40.789739 -111.977798 83 4236ft 4kts
21-Apr-18 12:45 40.793776 -111.977524 354 4236ft 21kts
21-Apr-18 12:46 40.800286 -111.978280 354 4236ft 24kts
21-Apr-18 12:47 40.806348 -111.978542 354 4236ft 16kts
21-Apr-18 12:48 40.807150 -111.978427 33 4236ft 0kts
21-Apr-18 12:49 40.807406 -111.977809 96 4236ft 13kts
21-Apr-18 12:50 40.806455 -111.976840 172 4236ft 0kts
21-Apr-18 12:51 40.773556 -111.974172 193 5247ft 197kts
21-Apr-18 12:52 40.750425 -112.040004 270 7945ft 246kts
21-Apr-18 12:53 40.791597 -112.113724 316 11361ft 269kts
21-Apr-18 12:54 40.846318 -112.182502 316 14928ft 278kts
21-Apr-18 12:55 40.910736 -112.235093 353 18064ft 290kts
21-Apr-18 12:56 40.991522 -112.232583 27 20784ft 312kts
21-Apr-18 12:57 41.026934 -112.119392 81 22443ft 371kts
21-Apr-18 12:58 41.000733 -111.991900 108 24385ft 392kts
21-Apr-18 12:59 40.971174 -111.851173 102 26338ft 404kts
21-Apr-18 13:00 40.942197 -111.705815 102 28101ft 416kts
21-Apr-18 13:01 40.919951 -111.553709 91 29413ft 433kts
21-Apr-18 13:02 40.908173 -111.389071 95 29994ft 467kts
21-Apr-18 13:03 40.887753 -111.215821 96 30492ft 493kts
21-Apr-18 13:04 40.866302 -111.036068 96 31725ft 495kts
21-Apr-18 13:05 40.844805 -110.858357 94 33232ft 487kts
21-Apr-18 13:06 40.823311 -110.683075 94 33337ft 485kts
21-Apr-18 13:07 40.801460 -110.507301 94 33337ft 486kts
21-Apr-18 13:08 40.779628 -110.333828 95 33335ft 486kts
21-Apr-18 13:09 40.757266 -110.158364 95 33320ft 486kts
21-Apr-18 13:10 40.738527 -109.983007 90 33306ft 483kts
21-Apr-18 13:11 40.726116 -109.807193 90 33301ft 483kts
21-Apr-18 13:12 40.713396 -109.630813 90 33301ft 483kts
21-Apr-18 13:13 40.700466 -109.455233 90 33301ft 483kts
21-Apr-18 13:14 40.687433 -109.281833 91 33297ft 483kts
21-Apr-18 13:15 40.673956 -109.106164 90 33309ft 482kts
21-Apr-18 13:16 40.660357 -108.932367 89 33350ft 475kts
21-Apr-18 13:17 40.646673 -108.760750 89 33302ft 469kts
21-Apr-18 13:18 40.632861 -108.590792 89 33273ft 467kts
21-Apr-18 13:19 40.618799 -108.420886 89 33297ft 468kts
21-Apr-18 13:20 40.604939 -108.256375 89 33315ft 469kts
21-Apr-18 13:21 40.590368 -108.086414 89 33328ft 470kts
21-Apr-18 13:22 40.575487 -107.915822 89 33334ft 470kts
21-Apr-18 13:23 40.560429 -107.746115 89 33323ft 470kts
21-Apr-18 13:24 40.545049 -107.575705 89 33315ft 470kts
21-Apr-18 13:25 40.529458 -107.405772 89 33319ft 469kts
21-Apr-18 13:26 40.516669 -107.238999 87 33324ft 467kts
21-Apr-18 13:27 40.507655 -107.068949 87 33311ft 467kts
21-Apr-18 13:28 40.498420 -106.899441 87 33331ft 465kts
21-Apr-18 13:29 40.488994 -106.730942 86 33346ft 460kts
21-Apr-18 13:30 40.479481 -106.565070 86 33294ft 457kts
21-Apr-18 13:31 40.469709 -106.398929 86 33271ft 456kts
21-Apr-18 13:32 40.459791 -106.234345 88 32089ft 466kts
21-Apr-18 13:33 40.449346 -106.065389 88 30051ft 464kts
21-Apr-18 13:34 40.430362 -105.900791 96 27262ft 437kts
21-Apr-18 13:35 40.406342 -105.747755 97 25092ft 426kts
21-Apr-18 13:36 40.382474 -105.597493 97 22904ft 418kts
21-Apr-18 13:37 40.359551 -105.455511 101 21877ft 381kts
21-Apr-18 13:38 40.299120 -105.346053 129 20309ft 372kts
21-Apr-18 13:39 40.234698 -105.245212 129 18686ft 360kts
21-Apr-18 13:40 40.172130 -105.147383 130 17086ft 349kts
21-Apr-18 13:41 40.111655 -105.052997 128 15704ft 331kts
21-Apr-18 13:42 40.054292 -104.963733 128 14674ft 314kts
21-Apr-18 13:43 39.999717 -104.879040 128 13684ft 302kts
21-Apr-18 13:44 39.940351 -104.806619 168 12571ft 300kts
21-Apr-18 13:45 39.860313 -104.807083 180 11421ft 283kts
21-Apr-18 13:46 39.787923 -104.808952 180 11046ft 251kts
21-Apr-18 13:47 39.720160 -104.810729 180 10248ft 247kts
21-Apr-18 13:48 39.655248 -104.812218 174 9722ft 211kts
21-Apr-18 13:49 39.628902 -104.754597 98 8754ft 204kts
21-Apr-18 13:50 39.645147 -104.706571 19 8042ft 198kts
21-Apr-18 13:51 39.693997 -104.675575 29 7632ft 190kts
21-Apr-18 13:52 39.738609 -104.661564 0 7020ft 141kts
21-Apr-18 13:53 39.777437 -104.661181 1 6476ft 138kts
21-Apr-18 13:54 39.815439 -104.660714 1 5731ft 136kts
21-Apr-18 13:55 39.845563 -104.660225 357 5443ft 37kts
21-Apr-18 13:56 39.850085 -104.662048 355 5443ft 19kts
21-Apr-18 13:57 39.852935 -104.664927 261 5443ft 14kts
21-Apr-18 13:58 39.852923 -104.670813 339 5443ft 5kts
21-Apr-18 13:59 39.853346 -104.670765 14 5443ft 0kts
21-Apr-18 14:00 39.853346 -104.670765 14 5443ft 0kts
21-Apr-18 14:01 39.853346 -104.670765 14 5443ft 0kts
21-Apr-18 14:02 39.853346 -104.670765 14 5443ft 0kts

Navigation Log

Ident Type
Flight plan parsing failed, navigation log unavailable